sensor_id;sensor_type;location;lat;lon;timestamp;P1;durP1;ratioP1;P2;durP2;ratioP2
52322;SDS011;38263;52.920;6.238;2023-10-31T00:00:41;5.05;;;1.67;;
52322;SDS011;38263;52.920;6.238;2023-10-31T00:03:07;3.55;;;1.50;;
52322;SDS011;38263;52.920;6.238;2023-10-31T00:05:33;1.75;;;1.15;;
52322;SDS011;38263;52.920;6.238;2023-10-31T00:07:59;2.55;;;1.02;;
52322;SDS011;38263;52.920;6.238;2023-10-31T00:10:25;4.03;;;1.02;;
52322;SDS011;38263;52.920;6.238;2023-10-31T00:12:51;2.67;;;1.05;;
52322;SDS011;38263;52.920;6.238;2023-10-31T00:15:17;3.97;;;1.40;;
52322;SDS011;38263;52.920;6.238;2023-10-31T00:17:43;8.60;;;1.38;;
52322;SDS011;38263;52.920;6.238;2023-10-31T00:20:09;6.80;;;1.10;;
52322;SDS011;38263;52.920;6.238;2023-10-31T00:22:35;2.00;;;0.88;;
52322;SDS011;38263;52.920;6.238;2023-10-31T00:25:01;4.47;;;1.10;;
52322;SDS011;38263;52.920;6.238;2023-10-31T00:27:27;3.15;;;1.00;;
52322;SDS011;38263;52.920;6.238;2023-10-31T00:29:53;4.10;;;1.08;;
52322;SDS011;38263;52.920;6.238;2023-10-31T00:32:18;2.22;;;0.80;;
52322;SDS011;38263;52.920;6.238;2023-10-31T00:34:44;3.58;;;1.20;;
52322;SDS011;38263;52.920;6.238;2023-10-31T00:37:10;5.28;;;1.10;;
52322;SDS011;38263;52.920;6.238;2023-10-31T00:39:36;2.35;;;0.90;;
52322;SDS011;38263;52.920;6.238;2023-10-31T00:42:02;3.35;;;0.88;;
52322;SDS011;38263;52.920;6.238;2023-10-31T00:44:28;2.28;;;1.17;;
52322;SDS011;38263;52.920;6.238;2023-10-31T00:46:54;3.55;;;1.00;;
52322;SDS011;38263;52.920;6.238;2023-10-31T00:49:21;5.22;;;1.20;;
52322;SDS011;38263;52.920;6.238;2023-10-31T00:51:46;2.35;;;1.30;;
52322;SDS011;38263;52.920;6.238;2023-10-31T00:54:12;3.03;;;1.25;;
52322;SDS011;38263;52.920;6.238;2023-10-31T00:56:39;3.00;;;0.82;;
52322;SDS011;38263;52.920;6.238;2023-10-31T00:59:05;3.70;;;1.50;;
52322;SDS011;38263;52.920;6.238;2023-10-31T01:01:31;2.35;;;1.17;;
52322;SDS011;38263;52.920;6.238;2023-10-31T01:03:57;4.55;;;1.63;;
52322;SDS011;38263;52.920;6.238;2023-10-31T01:06:23;2.55;;;1.20;;
52322;SDS011;38263;52.920;6.238;2023-10-31T01:08:49;2.55;;;1.50;;
52322;SDS011;38263;52.920;6.238;2023-10-31T01:11:15;4.43;;;1.45;;
52322;SDS011;38263;52.920;6.238;2023-10-31T01:13:40;4.85;;;2.20;;
52322;SDS011;38263;52.920;6.238;2023-10-31T01:16:06;3.00;;;1.60;;
52322;SDS011;38263;52.920;6.238;2023-10-31T01:18:32;3.55;;;1.77;;
52322;SDS011;38263;52.920;6.238;2023-10-31T01:20:58;3.75;;;1.50;;
52322;SDS011;38263;52.920;6.238;2023-10-31T01:23:24;4.10;;;2.10;;
52322;SDS011;38263;52.920;6.238;2023-10-31T01:25:50;5.07;;;1.65;;
52322;SDS011;38263;52.920;6.238;2023-10-31T01:28:16;4.20;;;1.92;;
52322;SDS011;38263;52.920;6.238;2023-10-31T01:30:41;4.93;;;1.45;;
52322;SDS011;38263;52.920;6.238;2023-10-31T01:33:07;5.05;;;1.60;;
52322;SDS011;38263;52.920;6.238;2023-10-31T01:35:33;10.70;;;2.13;;
52322;SDS011;38263;52.920;6.238;2023-10-31T01:37:59;4.78;;;1.50;;
52322;SDS011;38263;52.920;6.238;2023-10-31T01:40:25;4.40;;;1.42;;
52322;SDS011;38263;52.920;6.238;2023-10-31T01:42:51;2.05;;;0.90;;
52322;SDS011;38263;52.920;6.238;2023-10-31T01:45:17;3.13;;;1.20;;
52322;SDS011;38263;52.920;6.238;2023-10-31T01:47:43;3.65;;;1.00;;
52322;SDS011;38263;52.920;6.238;2023-10-31T01:50:10;8.88;;;0.82;;
52322;SDS011;38263;52.920;6.238;2023-10-31T01:52:36;4.88;;;1.20;;
52322;SDS011;38263;52.920;6.238;2023-10-31T01:55:02;6.00;;;1.42;;
52322;SDS011;38263;52.920;6.238;2023-10-31T01:57:29;4.20;;;1.20;;
52322;SDS011;38263;52.920;6.238;2023-10-31T01:59:55;3.63;;;1.20;;
52322;SDS011;38263;52.920;6.238;2023-10-31T02:02:22;4.88;;;1.20;;
52322;SDS011;38263;52.920;6.238;2023-10-31T02:04:49;3.20;;;1.27;;
52322;SDS011;38263;52.920;6.238;2023-10-31T02:07:16;4.32;;;1.80;;
52322;SDS011;38263;52.920;6.238;2023-10-31T02:09:41;5.50;;;1.90;;
52322;SDS011;38263;52.920;6.238;2023-10-31T02:12:07;2.97;;;1.63;;
52322;SDS011;38263;52.920;6.238;2023-10-31T02:14:33;5.43;;;2.50;;
52322;SDS011;38263;52.920;6.238;2023-10-31T02:16:59;3.70;;;1.90;;
52322;SDS011;38263;52.920;6.238;2023-10-31T02:19:25;3.88;;;2.33;;
52322;SDS011;38263;52.920;6.238;2023-10-31T02:21:51;5.55;;;2.13;;
52322;SDS011;38263;52.920;6.238;2023-10-31T02:24:16;4.00;;;2.42;;
52322;SDS011;38263;52.920;6.238;2023-10-31T02:26:42;2.60;;;2.05;;
52322;SDS011;38263;52.920;6.238;2023-10-31T02:29:08;3.40;;;2.10;;
52322;SDS011;38263;52.920;6.238;2023-10-31T02:31:34;6.95;;;2.63;;
52322;SDS011;38263;52.920;6.238;2023-10-31T02:34:00;6.53;;;2.83;;
52322;SDS011;38263;52.920;6.238;2023-10-31T02:36:26;8.20;;;2.63;;
52322;SDS011;38263;52.920;6.238;2023-10-31T02:38:52;4.43;;;2.53;;
52322;SDS011;38263;52.920;6.238;2023-10-31T02:41:18;8.38;;;2.60;;
52322;SDS011;38263;52.920;6.238;2023-10-31T02:43:44;7.00;;;2.97;;
52322;SDS011;38263;52.920;6.238;2023-10-31T02:46:10;7.55;;;2.88;;
52322;SDS011;38263;52.920;6.238;2023-10-31T02:48:38;3.35;;;2.38;;
52322;SDS011;38263;52.920;6.238;2023-10-31T02:51:05;5.63;;;2.63;;
52322;SDS011;38263;52.920;6.238;2023-10-31T02:53:31;6.38;;;2.85;;
52322;SDS011;38263;52.920;6.238;2023-10-31T02:55:57;9.63;;;3.97;;
52322;SDS011;38263;52.920;6.238;2023-10-31T02:58:22;5.47;;;3.13;;
52322;SDS011;38263;52.920;6.238;2023-10-31T03:00:48;5.60;;;2.60;;
52322;SDS011;38263;52.920;6.238;2023-10-31T03:03:15;5.18;;;2.85;;
52322;SDS011;38263;52.920;6.238;2023-10-31T03:05:41;7.72;;;2.53;;
52322;SDS011;38263;52.920;6.238;2023-10-31T03:08:07;3.97;;;2.25;;
52322;SDS011;38263;52.920;6.238;2023-10-31T03:10:35;5.32;;;2.58;;
52322;SDS011;38263;52.920;6.238;2023-10-31T03:13:01;3.25;;;2.22;;
52322;SDS011;38263;52.920;6.238;2023-10-31T03:15:27;8.27;;;2.83;;
52322;SDS011;38263;52.920;6.238;2023-10-31T03:17:53;5.88;;;2.28;;
52322;SDS011;38263;52.920;6.238;2023-10-31T03:20:19;9.07;;;2.45;;
52322;SDS011;38263;52.920;6.238;2023-10-31T03:22:45;14.35;;;2.70;;
52322;SDS011;38263;52.920;6.238;2023-10-31T03:25:11;4.32;;;2.70;;
52322;SDS011;38263;52.920;6.238;2023-10-31T03:27:37;4.43;;;2.90;;
52322;SDS011;38263;52.920;6.238;2023-10-31T03:30:03;8.05;;;3.15;;
52322;SDS011;38263;52.920;6.238;2023-10-31T03:32:29;7.72;;;3.20;;
52322;SDS011;38263;52.920;6.238;2023-10-31T03:34:55;7.25;;;3.42;;
52322;SDS011;38263;52.920;6.238;2023-10-31T03:37:21;6.63;;;3.35;;
52322;SDS011;38263;52.920;6.238;2023-10-31T03:39:47;5.10;;;2.30;;
52322;SDS011;38263;52.920;6.238;2023-10-31T03:42:12;7.90;;;2.67;;
52322;SDS011;38263;52.920;6.238;2023-10-31T03:44:38;5.00;;;2.60;;
52322;SDS011;38263;52.920;6.238;2023-10-31T03:47:04;9.63;;;2.78;;
52322;SDS011;38263;52.920;6.238;2023-10-31T03:49:30;3.53;;;2.33;;
52322;SDS011;38263;52.920;6.238;2023-10-31T03:51:56;3.20;;;2.38;;
52322;SDS011;38263;52.920;6.238;2023-10-31T03:54:22;4.32;;;2.00;;
52322;SDS011;38263;52.920;6.238;2023-10-31T03:56:48;5.00;;;2.03;;
52322;SDS011;38263;52.920;6.238;2023-10-31T03:59:13;6.22;;;1.90;;
52322;SDS011;38263;52.920;6.238;2023-10-31T04:01:39;4.63;;;1.75;;
52322;SDS011;38263;52.920;6.238;2023-10-31T04:04:05;5.15;;;1.25;;
52322;SDS011;38263;52.920;6.238;2023-10-31T04:06:31;6.97;;;1.75;;
52322;SDS011;38263;52.920;6.238;2023-10-31T04:08:57;3.55;;;1.55;;
52322;SDS011;38263;52.920;6.238;2023-10-31T04:11:23;2.30;;;1.40;;
52322;SDS011;38263;52.920;6.238;2023-10-31T04:13:49;3.65;;;1.45;;
52322;SDS011;38263;52.920;6.238;2023-10-31T04:16:15;6.43;;;1.58;;
52322;SDS011;38263;52.920;6.238;2023-10-31T04:18:41;3.50;;;1.33;;
52322;SDS011;38263;52.920;6.238;2023-10-31T04:21:07;3.83;;;1.23;;
52322;SDS011;38263;52.920;6.238;2023-10-31T04:23:33;4.30;;;1.27;;
52322;SDS011;38263;52.920;6.238;2023-10-31T04:25:59;3.53;;;1.33;;
52322;SDS011;38263;52.920;6.238;2023-10-31T04:28:25;5.90;;;1.58;;
52322;SDS011;38263;52.920;6.238;2023-10-31T04:30:50;3.38;;;1.50;;
52322;SDS011;38263;52.920;6.238;2023-10-31T04:33:16;4.45;;;1.40;;
52322;SDS011;38263;52.920;6.238;2023-10-31T04:35:42;3.63;;;1.55;;
52322;SDS011;38263;52.920;6.238;2023-10-31T04:38:08;5.25;;;1.50;;
52322;SDS011;38263;52.920;6.238;2023-10-31T04:40:34;1.80;;;1.05;;
52322;SDS011;38263;52.920;6.238;2023-10-31T04:42:59;2.47;;;1.33;;
52322;SDS011;38263;52.920;6.238;2023-10-31T04:45:25;4.10;;;1.40;;
52322;SDS011;38263;52.920;6.238;2023-10-31T04:47:51;2.38;;;1.00;;
52322;SDS011;38263;52.920;6.238;2023-10-31T04:50:17;4.18;;;1.42;;
52322;SDS011;38263;52.920;6.238;2023-10-31T04:52:43;4.13;;;1.50;;
52322;SDS011;38263;52.920;6.238;2023-10-31T04:55:09;3.15;;;1.35;;
52322;SDS011;38263;52.920;6.238;2023-10-31T04:57:34;4.70;;;1.40;;
52322;SDS011;38263;52.920;6.238;2023-10-31T05:00:00;4.32;;;1.20;;
52322;SDS011;38263;52.920;6.238;2023-10-31T05:02:26;2.70;;;1.08;;
52322;SDS011;38263;52.920;6.238;2023-10-31T05:04:53;4.68;;;1.20;;
52322;SDS011;38263;52.920;6.238;2023-10-31T05:07:19;4.28;;;1.40;;
52322;SDS011;38263;52.920;6.238;2023-10-31T05:09:45;2.53;;;1.05;;
52322;SDS011;38263;52.920;6.238;2023-10-31T05:12:11;1.65;;;0.82;;
52322;SDS011;38263;52.920;6.238;2023-10-31T05:14:37;2.45;;;1.08;;
52322;SDS011;38263;52.920;6.238;2023-10-31T05:17:03;5.10;;;1.38;;
52322;SDS011;38263;52.920;6.238;2023-10-31T05:19:29;5.15;;;1.02;;
52322;SDS011;38263;52.920;6.238;2023-10-31T05:21:55;3.53;;;1.00;;
52322;SDS011;38263;52.920;6.238;2023-10-31T05:24:21;7.43;;;1.13;;
52322;SDS011;38263;52.920;6.238;2023-10-31T05:26:47;1.85;;;0.80;;
52322;SDS011;38263;52.920;6.238;2023-10-31T05:29:13;3.42;;;1.00;;
52322;SDS011;38263;52.920;6.238;2023-10-31T05:31:39;6.88;;;1.88;;
52322;SDS011;38263;52.920;6.238;2023-10-31T05:34:06;2.67;;;1.10;;
52322;SDS011;38263;52.920;6.238;2023-10-31T05:36:32;2.42;;;0.90;;
52322;SDS011;38263;52.920;6.238;2023-10-31T05:38:58;3.40;;;1.08;;
52322;SDS011;38263;52.920;6.238;2023-10-31T05:41:24;2.58;;;1.10;;
52322;SDS011;38263;52.920;6.238;2023-10-31T05:43:50;4.30;;;1.30;;
52322;SDS011;38263;52.920;6.238;2023-10-31T05:46:16;4.05;;;1.15;;
52322;SDS011;38263;52.920;6.238;2023-10-31T05:48:43;5.32;;;1.45;;
52322;SDS011;38263;52.920;6.238;2023-10-31T05:51:10;4.15;;;1.40;;
52322;SDS011;38263;52.920;6.238;2023-10-31T05:53:38;2.13;;;1.33;;
52322;SDS011;38263;52.920;6.238;2023-10-31T05:56:04;1.95;;;1.13;;
52322;SDS011;38263;52.920;6.238;2023-10-31T05:58:32;2.30;;;1.40;;
52322;SDS011;38263;52.920;6.238;2023-10-31T06:00:57;2.35;;;1.40;;
52322;SDS011;38263;52.920;6.238;2023-10-31T06:03:23;3.92;;;1.40;;
52322;SDS011;38263;52.920;6.238;2023-10-31T06:05:49;2.90;;;1.40;;
52322;SDS011;38263;52.920;6.238;2023-10-31T06:08:15;4.20;;;1.30;;
52322;SDS011;38263;52.920;6.238;2023-10-31T06:10:41;4.70;;;1.30;;
52322;SDS011;38263;52.920;6.238;2023-10-31T06:13:07;3.03;;;1.23;;
52322;SDS011;38263;52.920;6.238;2023-10-31T06:15:32;4.68;;;1.38;;
52322;SDS011;38263;52.920;6.238;2023-10-31T06:17:58;3.33;;;1.40;;
52322;SDS011;38263;52.920;6.238;2023-10-31T06:20:24;3.20;;;1.10;;
52322;SDS011;38263;52.920;6.238;2023-10-31T06:22:50;7.20;;;1.33;;
52322;SDS011;38263;52.920;6.238;2023-10-31T06:25:16;4.22;;;1.58;;
52322;SDS011;38263;52.920;6.238;2023-10-31T06:27:42;5.07;;;1.50;;
52322;SDS011;38263;52.920;6.238;2023-10-31T06:30:08;8.25;;;2.22;;
52322;SDS011;38263;52.920;6.238;2023-10-31T06:32:34;6.03;;;2.00;;
52322;SDS011;38263;52.920;6.238;2023-10-31T06:35:00;3.78;;;2.10;;
52322;SDS011;38263;52.920;6.238;2023-10-31T06:37:26;6.10;;;1.95;;
52322;SDS011;38263;52.920;6.238;2023-10-31T06:39:51;7.28;;;2.35;;
52322;SDS011;38263;52.920;6.238;2023-10-31T06:42:17;3.47;;;2.08;;
52322;SDS011;38263;52.920;6.238;2023-10-31T06:44:43;5.10;;;2.50;;
52322;SDS011;38263;52.920;6.238;2023-10-31T06:47:09;5.55;;;2.80;;
52322;SDS011;38263;52.920;6.238;2023-10-31T06:49:35;6.93;;;2.70;;
52322;SDS011;38263;52.920;6.238;2023-10-31T06:52:02;4.47;;;2.53;;
52322;SDS011;38263;52.920;6.238;2023-10-31T06:54:28;12.40;;;3.28;;
52322;SDS011;38263;52.920;6.238;2023-10-31T06:56:53;6.15;;;2.80;;
52322;SDS011;38263;52.920;6.238;2023-10-31T06:59:19;5.70;;;2.60;;
52322;SDS011;38263;52.920;6.238;2023-10-31T07:01:45;5.45;;;2.30;;
52322;SDS011;38263;52.920;6.238;2023-10-31T07:04:11;7.22;;;2.30;;
52322;SDS011;38263;52.920;6.238;2023-10-31T07:06:38;6.15;;;2.55;;
52322;SDS011;38263;52.920;6.238;2023-10-31T07:09:04;6.82;;;2.42;;
52322;SDS011;38263;52.920;6.238;2023-10-31T07:11:31;4.47;;;2.58;;
52322;SDS011;38263;52.920;6.238;2023-10-31T07:14:00;4.32;;;2.70;;
52322;SDS011;38263;52.920;6.238;2023-10-31T07:16:27;7.50;;;2.92;;
52322;SDS011;38263;52.920;6.238;2023-10-31T07:18:53;7.88;;;2.80;;
52322;SDS011;38263;52.920;6.238;2023-10-31T07:21:19;5.68;;;2.60;;
52322;SDS011;38263;52.920;6.238;2023-10-31T07:23:45;7.10;;;2.30;;
52322;SDS011;38263;52.920;6.238;2023-10-31T07:26:11;5.68;;;2.28;;
52322;SDS011;38263;52.920;6.238;2023-10-31T07:28:37;3.45;;;2.28;;
52322;SDS011;38263;52.920;6.238;2023-10-31T07:31:03;5.60;;;2.00;;
52322;SDS011;38263;52.920;6.238;2023-10-31T07:33:29;5.18;;;2.40;;
52322;SDS011;38263;52.920;6.238;2023-10-31T07:35:55;3.83;;;1.90;;
52322;SDS011;38263;52.920;6.238;2023-10-31T07:38:21;6.35;;;1.92;;
52322;SDS011;38263;52.920;6.238;2023-10-31T07:40:47;6.40;;;2.28;;
52322;SDS011;38263;52.920;6.238;2023-10-31T07:43:13;5.00;;;2.33;;
52322;SDS011;38263;52.920;6.238;2023-10-31T07:45:39;3.72;;;1.88;;
52322;SDS011;38263;52.920;6.238;2023-10-31T07:48:04;6.57;;;2.03;;
52322;SDS011;38263;52.920;6.238;2023-10-31T07:50:30;7.10;;;1.77;;
52322;SDS011;38263;52.920;6.238;2023-10-31T07:52:56;6.25;;;1.58;;
52322;SDS011;38263;52.920;6.238;2023-10-31T07:55:22;5.70;;;2.05;;
52322;SDS011;38263;52.920;6.238;2023-10-31T07:57:48;7.82;;;1.65;;
52322;SDS011;38263;52.920;6.238;2023-10-31T08:00:13;3.72;;;1.23;;
52322;SDS011;38263;52.920;6.238;2023-10-31T08:02:39;4.75;;;1.45;;
52322;SDS011;38263;52.920;6.238;2023-10-31T08:05:06;8.20;;;1.15;;
52322;SDS011;38263;52.920;6.238;2023-10-31T08:07:32;3.35;;;1.13;;
52322;SDS011;38263;52.920;6.238;2023-10-31T08:09:58;3.22;;;1.23;;
52322;SDS011;38263;52.920;6.238;2023-10-31T08:12:24;5.68;;;1.20;;
52322;SDS011;38263;52.920;6.238;2023-10-31T08:14:50;4.88;;;1.10;;
52322;SDS011;38263;52.920;6.238;2023-10-31T08:17:16;3.88;;;0.95;;
52322;SDS011;38263;52.920;6.238;2023-10-31T08:19:41;3.70;;;1.10;;
52322;SDS011;38263;52.920;6.238;2023-10-31T08:22:08;4.80;;;0.90;;
52322;SDS011;38263;52.920;6.238;2023-10-31T08:24:34;1.70;;;0.88;;
52322;SDS011;38263;52.920;6.238;2023-10-31T08:27:01;2.97;;;1.08;;
52322;SDS011;38263;52.920;6.238;2023-10-31T08:29:27;1.52;;;0.93;;
52322;SDS011;38263;52.920;6.238;2023-10-31T08:31:53;4.68;;;1.15;;
52322;SDS011;38263;52.920;6.238;2023-10-31T08:34:19;5.63;;;1.15;;
52322;SDS011;38263;52.920;6.238;2023-10-31T08:36:45;2.40;;;0.90;;
52322;SDS011;38263;52.920;6.238;2023-10-31T08:39:11;11.32;;;1.33;;
52322;SDS011;38263;52.920;6.238;2023-10-31T08:41:48;5.43;;;1.45;;
52322;SDS011;38263;52.920;6.238;2023-10-31T08:44:14;4.53;;;1.35;;
52322;SDS011;38263;52.920;6.238;2023-10-31T08:46:40;2.88;;;1.10;;
52322;SDS011;38263;52.920;6.238;2023-10-31T08:49:06;4.20;;;0.70;;
52322;SDS011;38263;52.920;6.238;2023-10-31T08:51:32;3.75;;;0.73;;
52322;SDS011;38263;52.920;6.238;2023-10-31T08:53:58;6.28;;;1.17;;
52322;SDS011;38263;52.920;6.238;2023-10-31T08:56:24;4.15;;;0.70;;
52322;SDS011;38263;52.920;6.238;2023-10-31T08:58:52;3.05;;;0.77;;
52322;SDS011;38263;52.920;6.238;2023-10-31T09:01:18;2.63;;;0.65;;
52322;SDS011;38263;52.920;6.238;2023-10-31T09:03:44;2.65;;;0.88;;
52322;SDS011;38263;52.920;6.238;2023-10-31T09:06:10;3.85;;;1.00;;
52322;SDS011;38263;52.920;6.238;2023-10-31T09:08:36;3.22;;;1.05;;
52322;SDS011;38263;52.920;6.238;2023-10-31T09:11:03;2.38;;;0.50;;
52322;SDS011;38263;52.920;6.238;2023-10-31T09:13:29;6.75;;;0.80;;
52322;SDS011;38263;52.920;6.238;2023-10-31T09:15:56;3.65;;;1.00;;
52322;SDS011;38263;52.920;6.238;2023-10-31T09:18:22;4.38;;;0.90;;
52322;SDS011;38263;52.920;6.238;2023-10-31T09:20:48;4.40;;;0.60;;
52322;SDS011;38263;52.920;6.238;2023-10-31T09:23:13;3.92;;;0.85;;
52322;SDS011;38263;52.920;6.238;2023-10-31T09:25:39;2.10;;;0.43;;
52322;SDS011;38263;52.920;6.238;2023-10-31T09:28:05;0.70;;;0.50;;
52322;SDS011;38263;52.920;6.238;2023-10-31T09:30:31;1.40;;;0.40;;
52322;SDS011;38263;52.920;6.238;2023-10-31T09:32:57;0.52;;;0.43;;
52322;SDS011;38263;52.920;6.238;2023-10-31T09:35:23;1.75;;;0.50;;
52322;SDS011;38263;52.920;6.238;2023-10-31T09:37:51;1.00;;;0.30;;
52322;SDS011;38263;52.920;6.238;2023-10-31T09:40:17;1.17;;;0.57;;
52322;SDS011;38263;52.920;6.238;2023-10-31T09:42:46;0.95;;;0.50;;
52322;SDS011;38263;52.920;6.238;2023-10-31T09:45:12;1.58;;;0.40;;
52322;SDS011;38263;52.920;6.238;2023-10-31T09:47:38;1.15;;;0.50;;
52322;SDS011;38263;52.920;6.238;2023-10-31T09:50:05;1.25;;;0.60;;
52322;SDS011;38263;52.920;6.238;2023-10-31T09:52:33;2.10;;;0.50;;
52322;SDS011;38263;52.920;6.238;2023-10-31T09:55:00;2.50;;;0.55;;
52322;SDS011;38263;52.920;6.238;2023-10-31T09:57:26;0.90;;;0.45;;
52322;SDS011;38263;52.920;6.238;2023-10-31T09:59:52;0.40;;;0.40;;
52322;SDS011;38263;52.920;6.238;2023-10-31T10:02:18;1.27;;;0.60;;
52322;SDS011;38263;52.920;6.238;2023-10-31T10:04:43;4.88;;;0.60;;
52322;SDS011;38263;52.920;6.238;2023-10-31T10:07:09;1.95;;;0.40;;
52322;SDS011;38263;52.920;6.238;2023-10-31T10:09:42;0.63;;;0.50;;
52322;SDS011;38263;52.920;6.238;2023-10-31T10:12:08;0.50;;;0.50;;
52322;SDS011;38263;52.920;6.238;2023-10-31T10:14:37;1.15;;;0.43;;
52322;SDS011;38263;52.920;6.238;2023-10-31T10:17:09;1.08;;;0.60;;
52322;SDS011;38263;52.920;6.238;2023-10-31T10:19:44;0.68;;;0.43;;
52322;SDS011;38263;52.920;6.238;2023-10-31T10:22:10;2.22;;;0.70;;
52322;SDS011;38263;52.920;6.238;2023-10-31T10:24:41;5.05;;;0.60;;
52322;SDS011;38263;52.920;6.238;2023-10-31T10:27:07;0.68;;;0.50;;
52322;SDS011;38263;52.920;6.238;2023-10-31T10:29:33;1.85;;;0.77;;
52322;SDS011;38263;52.920;6.238;2023-10-31T10:32:00;2.63;;;0.75;;
52322;SDS011;38263;52.920;6.238;2023-10-31T10:34:26;1.67;;;0.70;;
52322;SDS011;38263;52.920;6.238;2023-10-31T10:36:52;2.35;;;0.50;;
52322;SDS011;38263;52.920;6.238;2023-10-31T10:39:22;1.73;;;0.50;;
52322;SDS011;38263;52.920;6.238;2023-10-31T10:41:52;2.72;;;0.60;;
52322;SDS011;38263;52.920;6.238;2023-10-31T10:44:33;0.40;;;0.40;;
52322;SDS011;38263;52.920;6.238;2023-10-31T10:47:03;1.30;;;0.60;;
52322;SDS011;38263;52.920;6.238;2023-10-31T10:49:34;4.50;;;0.80;;
52322;SDS011;38263;52.920;6.238;2023-10-31T10:52:07;2.35;;;0.80;;
52322;SDS011;38263;52.920;6.238;2023-10-31T10:54:37;1.33;;;0.50;;
52322;SDS011;38263;52.920;6.238;2023-10-31T10:57:36;1.20;;;0.60;;
52322;SDS011;38263;52.920;6.238;2023-10-31T11:00:10;2.17;;;0.52;;
52322;SDS011;38263;52.920;6.238;2023-10-31T11:02:39;1.95;;;0.52;;
52322;SDS011;38263;52.920;6.238;2023-10-31T11:05:08;1.25;;;0.45;;
52322;SDS011;38263;52.920;6.238;2023-10-31T11:07:34;2.35;;;0.50;;
52322;SDS011;38263;52.920;6.238;2023-10-31T11:10:02;1.33;;;0.60;;
52322;SDS011;38263;52.920;6.238;2023-10-31T11:12:30;2.35;;;0.52;;
52322;SDS011;38263;52.920;6.238;2023-10-31T11:14:59;2.75;;;0.52;;
52322;SDS011;38263;52.920;6.238;2023-10-31T11:17:28;0.85;;;0.50;;
52322;SDS011;38263;52.920;6.238;2023-10-31T11:19:54;2.13;;;1.05;;
52322;SDS011;38263;52.920;6.238;2023-10-31T11:22:21;3.15;;;0.80;;
52322;SDS011;38263;52.920;6.238;2023-10-31T11:24:48;3.90;;;0.70;;
52322;SDS011;38263;52.920;6.238;2023-10-31T11:27:14;6.20;;;0.93;;
52322;SDS011;38263;52.920;6.238;2023-10-31T11:29:42;2.65;;;0.70;;
52322;SDS011;38263;52.920;6.238;2023-10-31T11:32:09;2.83;;;0.73;;
52322;SDS011;38263;52.920;6.238;2023-10-31T11:34:36;2.00;;;0.88;;
52322;SDS011;38263;52.920;6.238;2023-10-31T11:42:38;1.90;;;0.45;;
52322;SDS011;38263;52.920;6.238;2023-10-31T11:45:04;4.28;;;0.47;;
52322;SDS011;38263;52.920;6.238;2023-10-31T11:47:49;2.60;;;0.52;;
52322;SDS011;38263;52.920;6.238;2023-10-31T11:50:15;3.75;;;1.02;;
52322;SDS011;38263;52.920;6.238;2023-10-31T11:52:42;2.97;;;0.68;;
52322;SDS011;38263;52.920;6.238;2023-10-31T11:55:11;2.08;;;0.68;;
52322;SDS011;38263;52.920;6.238;2023-10-31T11:57:40;2.95;;;0.80;;
52322;SDS011;38263;52.920;6.238;2023-10-31T12:00:06;3.83;;;0.90;;
52322;SDS011;38263;52.920;6.238;2023-10-31T12:02:56;3.13;;;0.70;;
52322;SDS011;38263;52.920;6.238;2023-10-31T12:05:22;3.75;;;0.63;;
52322;SDS011;38263;52.920;6.238;2023-10-31T12:07:48;2.13;;;0.82;;
52322;SDS011;38263;52.920;6.238;2023-10-31T12:10:16;2.28;;;0.70;;
52322;SDS011;38263;52.920;6.238;2023-10-31T12:12:50;2.25;;;0.70;;
52322;SDS011;38263;52.920;6.238;2023-10-31T12:15:16;5.63;;;0.95;;
52322;SDS011;38263;52.920;6.238;2023-10-31T12:17:42;5.10;;;1.23;;
52322;SDS011;38263;52.920;6.238;2023-10-31T12:20:08;2.08;;;0.57;;
52322;SDS011;38263;52.920;6.238;2023-10-31T12:22:34;1.55;;;0.60;;
52322;SDS011;38263;52.920;6.238;2023-10-31T12:25:04;3.00;;;0.70;;
52322;SDS011;38263;52.920;6.238;2023-10-31T12:28:03;3.45;;;0.70;;
52322;SDS011;38263;52.920;6.238;2023-10-31T12:30:22;3.30;;;0.75;;
52322;SDS011;38263;52.920;6.238;2023-10-31T12:32:54;2.75;;;1.17;;
52322;SDS011;38263;52.920;6.238;2023-10-31T12:35:22;7.18;;;0.80;;
52322;SDS011;38263;52.920;6.238;2023-10-31T12:37:49;4.20;;;0.77;;
52322;SDS011;38263;52.920;6.238;2023-10-31T12:40:16;2.97;;;1.15;;
52322;SDS011;38263;52.920;6.238;2023-10-31T12:42:43;7.45;;;0.95;;
52322;SDS011;38263;52.920;6.238;2023-10-31T12:45:09;2.63;;;0.93;;
52322;SDS011;38263;52.920;6.238;2023-10-31T12:47:36;2.35;;;0.80;;
52322;SDS011;38263;52.920;6.238;2023-10-31T12:50:15;2.75;;;0.70;;
52322;SDS011;38263;52.920;6.238;2023-10-31T12:52:49;6.18;;;0.95;;
52322;SDS011;38263;52.920;6.238;2023-10-31T12:55:19;2.08;;;0.60;;
52322;SDS011;38263;52.920;6.238;2023-10-31T12:57:46;2.45;;;0.93;;
52322;SDS011;38263;52.920;6.238;2023-10-31T13:00:12;2.15;;;0.70;;
52322;SDS011;38263;52.920;6.238;2023-10-31T13:02:49;0.95;;;0.60;;
52322;SDS011;38263;52.920;6.238;2023-10-31T13:05:15;2.92;;;0.68;;
52322;SDS011;38263;52.920;6.238;2023-10-31T13:07:48;2.50;;;0.60;;
52322;SDS011;38263;52.920;6.238;2023-10-31T13:10:15;3.78;;;0.70;;
52322;SDS011;38263;52.920;6.238;2023-10-31T13:12:47;2.58;;;0.90;;
52322;SDS011;38263;52.920;6.238;2023-10-31T13:15:13;4.65;;;0.80;;
52322;SDS011;38263;52.920;6.238;2023-10-31T13:17:46;0.95;;;0.60;;
52322;SDS011;38263;52.920;6.238;2023-10-31T13:20:13;3.67;;;0.93;;
52322;SDS011;38263;52.920;6.238;2023-10-31T13:22:40;2.75;;;0.60;;
52322;SDS011;38263;52.920;6.238;2023-10-31T13:25:07;2.65;;;0.57;;
52322;SDS011;38263;52.920;6.238;2023-10-31T13:27:36;1.20;;;0.55;;
52322;SDS011;38263;52.920;6.238;2023-10-31T13:30:03;1.60;;;0.68;;
52322;SDS011;38263;52.920;6.238;2023-10-31T13:32:29;3.80;;;0.70;;
52322;SDS011;38263;52.920;6.238;2023-10-31T13:34:55;4.30;;;0.93;;
52322;SDS011;38263;52.920;6.238;2023-10-31T13:37:21;3.92;;;0.90;;
52322;SDS011;38263;52.920;6.238;2023-10-31T13:39:47;0.77;;;0.45;;
52322;SDS011;38263;52.920;6.238;2023-10-31T13:42:13;1.38;;;0.50;;
52322;SDS011;38263;52.920;6.238;2023-10-31T13:44:42;2.35;;;0.50;;
52322;SDS011;38263;52.920;6.238;2023-10-31T13:47:08;1.15;;;0.55;;
52322;SDS011;38263;52.920;6.238;2023-10-31T13:49:34;4.13;;;0.98;;
52322;SDS011;38263;52.920;6.238;2023-10-31T13:52:00;1.67;;;0.50;;
52322;SDS011;38263;52.920;6.238;2023-10-31T13:54:26;1.42;;;0.82;;
52322;SDS011;38263;52.920;6.238;2023-10-31T13:56:53;2.38;;;0.77;;
52322;SDS011;38263;52.920;6.238;2023-10-31T13:59:19;1.00;;;0.57;;
52322;SDS011;38263;52.920;6.238;2023-10-31T14:01:45;0.82;;;0.82;;
52322;SDS011;38263;52.920;6.238;2023-10-31T14:04:11;1.05;;;0.50;;
52322;SDS011;38263;52.920;6.238;2023-10-31T14:06:41;2.72;;;0.65;;
52322;SDS011;38263;52.920;6.238;2023-10-31T14:09:08;3.50;;;0.65;;
52322;SDS011;38263;52.920;6.238;2023-10-31T14:11:35;1.00;;;0.50;;
52322;SDS011;38263;52.920;6.238;2023-10-31T14:14:01;0.82;;;0.43;;
52322;SDS011;38263;52.920;6.238;2023-10-31T14:16:44;4.72;;;0.75;;
52322;SDS011;38263;52.920;6.238;2023-10-31T14:19:11;1.80;;;0.57;;
52322;SDS011;38263;52.920;6.238;2023-10-31T14:21:38;4.28;;;0.88;;
52322;SDS011;38263;52.920;6.238;2023-10-31T14:24:04;1.15;;;0.40;;
52322;SDS011;38263;52.920;6.238;2023-10-31T14:26:30;3.55;;;0.93;;
52322;SDS011;38263;52.920;6.238;2023-10-31T14:28:59;1.73;;;0.70;;
52322;SDS011;38263;52.920;6.238;2023-10-31T14:31:25;1.83;;;0.80;;
52322;SDS011;38263;52.920;6.238;2023-10-31T14:33:51;2.55;;;0.88;;
52322;SDS011;38263;52.920;6.238;2023-10-31T14:36:17;1.15;;;0.68;;
52322;SDS011;38263;52.920;6.238;2023-10-31T14:38:43;2.58;;;0.68;;
52322;SDS011;38263;52.920;6.238;2023-10-31T14:41:09;2.67;;;0.60;;
52322;SDS011;38263;52.920;6.238;2023-10-31T14:43:35;1.48;;;0.50;;
52322;SDS011;38263;52.920;6.238;2023-10-31T14:46:01;1.40;;;0.60;;
52322;SDS011;38263;52.920;6.238;2023-10-31T14:48:27;1.05;;;0.50;;
52322;SDS011;38263;52.920;6.238;2023-10-31T14:50:53;2.45;;;0.73;;